Time;durP1;ratioP1;P1;durP2;ratioP2;P2;SDS_P1;SDS_P2;PMS_P1;PMS_P2;Temp;Humidity;BMP_temperature;BMP_pressure;BME280_temperature;BME280_humidity;BME280_pressure;Samples;Min_cycle;Max_cycle;Signal;HPM_P1;HPM_P2
2021/07/26 00:02:22;;;;;;;6.73;6.03;;;;;;;21.65;56.73;99802.69;153963;1094;103196;-78
2021/07/26 00:05:27;;;;;;;6.47;5.87;;;;;;;21.63;57.04;99793.95;153977;1096;103142;-78
2021/07/26 00:08:32;;;;;;;6.90;6.20;;;;;;;21.61;57.11;99782.50;153996;1095;103495;-78
2021/07/26 00:11:37;;;;;;;6.80;6.10;;;;;;;21.56;57.16;99778.61;153973;1101;103269;-79
2021/07/26 00:14:42;;;;;;;6.87;6.17;;;;;;;21.54;57.23;99779.92;153979;1095;103115;-79
2021/07/26 00:17:47;;;;;;;6.70;6.00;;;;;;;21.49;57.40;99777.91;153972;1101;103519;-79
2021/07/26 00:20:52;;;;;;;7.13;6.43;;;;;;;21.44;57.54;99776.95;153943;1095;103147;-77
2021/07/26 00:23:57;;;;;;;6.85;6.15;;;;;;;21.36;57.62;99773.53;154011;1101;103202;-77
2021/07/26 00:27:02;;;;;;;7.65;6.85;;;;;;;21.29;57.85;99774.70;153939;1101;103195;-77
2021/07/26 00:30:09;;;;;;;9.88;6.60;;;;;;;21.23;58.24;99772.91;153988;1101;103196;-80
2021/07/26 00:34:01;;;;;;;8.33;6.63;;;;;;;21.18;58.49;99763.59;153994;1094;103122;-80
2021/07/26 00:37:10;;;;;;;8.03;5.98;;;;;;;21.24;58.51;99766.44;153940;1101;103220;-77
2021/07/26 00:40:16;;;;;;;7.60;6.80;;;;;;;21.26;58.51;99775.16;153956;1101;103153;-77
2021/07/26 00:43:21;;;;;;;7.37;6.43;;;;;;;21.27;58.67;99763.27;153997;1096;103186;-78
2021/07/26 00:46:27;;;;;;;7.73;6.88;;;;;;;21.29;58.77;99763.85;154259;1096;103144;-79
2021/07/26 00:49:32;;;;;;;8.55;6.83;;;;;;;21.28;58.68;99762.19;153916;1094;103053;-76
2021/07/26 00:52:37;;;;;;;8.67;7.20;;;;;;;21.25;58.92;99755.35;154035;1101;103224;-77
2021/07/26 00:55:42;;;;;;;8.13;7.33;;;;;;;21.21;59.21;99756.04;153952;1101;103151;-77
2021/07/26 00:58:48;;;;;;;7.97;7.17;;;;;;;21.14;59.23;99756.98;153991;1096;103200;-77
2021/07/26 01:01:53;;;;;;;8.70;7.60;;;;;;;21.09;59.50;99756.85;154151;1096;103107;-78
2021/07/26 01:04:58;;;;;;;8.25;7.40;;;;;;;21.04;59.54;99759.46;153938;1096;103224;-79
2021/07/26 01:08:03;;;;;;;10.87;7.70;;;;;;;20.98;59.63;99765.83;153980;1101;103134;-78
2021/07/26 01:11:09;;;;;;;8.83;7.93;;;;;;;20.90;60.13;99763.43;154031;1096;103104;-80
2021/07/26 01:14:16;;;;;;;8.23;7.13;;;;;;;20.82;60.01;99761.06;153986;1101;103268;-77
2021/07/26 01:18:14;;;;;;;8.07;6.50;;;;;;;20.82;60.15;99761.06;154016;1101;103273;-76
2021/07/26 01:21:21;;;;;;;8.50;7.40;;;;;;;20.84;59.97;99770.61;153982;1093;103135;-76
2021/07/26 01:24:26;;;;;;;9.13;7.35;;;;;;;20.84;60.07;99769.80;153991;1101;103131;-76
2021/07/26 01:27:31;;;;;;;8.57;7.70;;;;;;;20.82;60.16;99780.05;153988;1096;103128;-77
2021/07/26 01:30:36;;;;;;;7.98;7.18;;;;;;;20.79;60.80;99774.03;154069;1101;103266;-75
2021/07/26 01:33:43;;;;;;;8.15;7.25;;;;;;;20.76;60.51;99774.48;154039;1101;103195;-77
2021/07/26 01:36:48;;;;;;;9.55;7.88;;;;;;;20.75;60.29;99772.03;153984;1096;103134;-76
2021/07/26 01:39:53;;;;;;;10.35;8.00;;;;;;;20.71;60.36;99771.66;154028;1096;103145;-80
2021/07/26 01:43:02;;;;;;;8.58;7.78;;;;;;;20.69;60.49;99762.94;154262;1101;103224;-78
2021/07/26 01:46:13;;;;;;;8.80;7.90;;;;;;;20.67;60.45;99773.19;153985;1101;103277;-77
2021/07/26 01:49:42;;;;;;;8.93;8.03;;;;;;;20.64;60.62;99765.50;154012;1101;103490;-79
2021/07/26 01:52:47;;;;;;;8.90;8.00;;;;;;;20.60;60.86;99761.61;154058;1094;103102;-77
2021/07/26 01:55:52;;;;;;;9.03;7.33;;;;;;;20.57;60.86;99764.73;154159;1101;103195;-79
2021/07/26 01:58:58;;;;;;;9.05;7.13;;;;;;;20.57;60.83;99757.45;153911;1096;103218;-78
2021/07/26 02:02:03;;;;;;;9.43;7.70;;;;;;;20.60;60.80;99764.31;153960;1095;103285;-78
2021/07/26 02:05:10;;;;;;;9.10;7.67;;;;;;;20.62;60.88;99754.06;153967;1101;103190;-76
2021/07/26 02:08:15;;;;;;;9.25;8.15;;;;;;;20.65;60.97;99766.32;153999;1101;103201;-76
2021/07/26 02:11:21;;;;;;;9.13;8.03;;;;;;;20.65;61.07;99772.59;153945;1101;103195;-76
2021/07/26 02:14:27;;;;;;;9.77;8.33;;;;;;;20.65;61.26;99778.02;153980;1101;103124;-77
2021/07/26 02:17:32;;;;;;;9.70;8.70;;;;;;;20.65;61.09;99780.73;153948;1095;103269;-77
2021/07/26 02:20:37;;;;;;;12.20;9.28;;;;;;;20.66;61.38;99785.08;153989;1095;103132;-79
2021/07/26 02:23:42;;;;;;;9.83;8.83;;;;;;;20.67;61.27;99770.47;153942;1096;103158;-79
2021/07/26 02:26:47;;;;;;;11.23;8.88;;;;;;;20.69;61.28;99765.64;153961;1101;103200;-78
2021/07/26 02:29:52;;;;;;;8.88;7.88;;;;;;;20.71;61.45;99766.23;153990;1101;103206;-81
2021/07/26 02:32:57;;;;;;;8.48;7.58;;;;;;;20.77;61.51;99764.48;153908;1096;103283;-79
2021/07/26 02:36:02;;;;;;;9.35;8.15;;;;;;;20.82;61.56;99771.91;153980;1101;103537;-79
2021/07/26 02:39:08;;;;;;;9.78;7.98;;;;;;;20.86;61.66;99756.83;154073;1096;103208;-78
2021/07/26 02:42:13;;;;;;;10.00;8.87;;;;;;;20.88;61.53;99760.13;154095;1101;103193;-78
2021/07/26 02:45:18;;;;;;;9.67;8.57;;;;;;;20.86;61.76;99762.25;154049;1101;103131;-77
2021/07/26 02:48:23;;;;;;;11.95;9.68;;;;;;;20.83;61.78;99757.31;154072;1101;103371;-78
2021/07/26 02:51:28;;;;;;;11.83;8.50;;;;;;;20.79;62.12;99748.81;154024;1101;103199;-83
2021/07/26 02:54:33;;;;;;;9.17;7.93;;;;;;;20.86;62.96;99754.97;154196;1096;103138;-75
2021/07/26 02:57:38;;;;;;;9.40;7.90;;;;;;;20.96;62.75;99754.39;153979;1101;103199;-79
2021/07/26 03:00:46;;;;;;;8.50;7.58;;;;;;;21.02;62.44;99745.31;153951;1101;103195;-78
2021/07/26 03:03:51;;;;;;;8.67;7.20;;;;;;;21.11;62.95;99745.77;153982;1101;103307;-78
2021/07/26 03:06:56;;;;;;;10.25;7.95;;;;;;;21.22;62.62;99753.09;153966;1101;103222;-81
2021/07/26 03:10:01;;;;;;;10.00;8.90;;;;;;;21.32;63.38;99757.94;154036;1101;103582;-79
2021/07/26 03:13:06;;;;;;;10.20;8.28;;;;;;;21.41;62.91;99748.38;154001;1101;103132;-81
2021/07/26 03:16:13;;;;;;;8.70;7.80;;;;;;;21.47;62.63;99747.45;154202;1096;103126;-78
2021/07/26 03:19:18;;;;;;;9.83;8.60;;;;;;;21.53;62.72;99738.36;154157;1101;103203;-77
2021/07/26 03:22:59;;;;;;;11.00;9.60;;;;;;;21.57;62.63;99727.85;154168;1101;103202;-80
2021/07/26 03:26:06;;;;;;;10.23;8.55;;;;;;;21.51;62.90;99726.91;153576;1096;103286;-82
2021/07/26 03:29:11;;;;;;;10.30;8.77;;;;;;;21.54;62.77;99715.59;153907;1101;103144;-81
2021/07/26 03:32:16;;;;;;;8.60;7.17;;;;;;;21.52;62.98;99715.00;154103;1101;103125;-80
2021/07/26 03:35:22;;;;;;;9.73;8.67;;;;;;;21.67;62.69;99711.80;154068;1101;103264;-79
2021/07/26 03:38:27;;;;;;;11.80;10.27;;;;;;;21.65;62.63;99710.37;153996;1101;103159;-80
2021/07/26 03:41:32;;;;;;;11.60;8.50;;;;;;;21.70;63.08;99716.73;153943;1101;103195;-79
2021/07/26 03:44:37;;;;;;;10.45;9.35;;;;;;;21.78;62.53;99704.67;153931;1096;103131;-81
2021/07/26 03:47:43;;;;;;;10.60;8.47;;;;;;;21.79;62.83;99714.48;154125;1101;103120;-81
2021/07/26 03:50:48;;;;;;;11.37;9.83;;;;;;;21.91;62.77;99717.16;153996;1101;103283;-81
2021/07/26 03:53:54;;;;;;;9.78;8.73;;;;;;;22.02;62.73;99715.45;154088;1101;103150;-81
2021/07/26 03:57:00;;;;;;;9.30;8.40;;;;;;;22.09;62.61;99716.97;154082;1101;103193;-80
2021/07/26 04:00:06;;;;;;;8.93;7.95;;;;;;;22.23;62.68;99722.95;154003;1101;103217;-83
2021/07/26 04:03:22;;;;;;;10.83;9.20;;;;;;;22.37;62.26;99723.52;154077;1096;103122;-82
2021/07/26 04:06:27;;;;;;;9.85;8.75;;;;;;;22.29;62.73;99721.20;154093;1101;103477;-83
2021/07/26 04:09:36;;;;;;;11.20;8.90;;;;;;;22.32;62.47;99726.94;154180;1101;103230;-83
2021/07/26 04:12:45;;;;;;;10.38;9.38;;;;;;;22.40;62.53;99730.34;154076;1096;103193;-83
2021/07/26 04:15:50;;;;;;;10.23;8.97;;;;;;;22.44;62.59;99728.78;154095;1101;103139;-79
2021/07/26 04:18:57;;;;;;;14.00;9.83;;;;;;;22.46;62.43;99732.08;153963;1101;103127;-81
2021/07/26 04:22:02;;;;;;;11.03;9.57;;;;;;;22.50;62.29;99733.27;154448;1101;103213;-78
2021/07/26 04:25:08;;;;;;;10.17;9.03;;;;;;;22.57;62.38;99746.70;154526;1101;103190;-84
2021/07/26 04:28:13;;;;;;;11.23;9.70;;;;;;;22.63;62.53;99737.55;154130;1101;103215;-80
2021/07/26 04:31:18;;;;;;;10.17;8.67;;;;;;;22.70;62.15;99741.77;154263;1101;103196;-83
2021/07/26 04:34:23;;;;;;;9.43;8.50;;;;;;;22.83;62.37;99739.81;154377;1101;103259;-84
2021/07/26 04:37:28;;;;;;;9.57;8.50;;;;;;;22.99;61.98;99746.33;154376;1101;103187;-83
2021/07/26 04:40:34;;;;;;;11.90;9.10;;;;;;;23.17;62.08;99747.98;154149;1101;103133;-81
2021/07/26 04:43:39;;;;;;;9.63;8.70;;;;;;;23.33;61.91;99741.72;154088;1101;103195;-82
2021/07/26 04:46:44;;;;;;;9.85;8.88;;;;;;;23.44;61.37;99748.11;154378;1101;103202;-81
2021/07/26 04:49:49;;;;;;;10.03;8.60;;;;;;;23.44;61.75;99738.07;154092;1101;103155;-81
2021/07/26 04:52:54;;;;;;;10.03;9.03;;;;;;;23.44;61.66;99743.52;154021;1093;103525;-82
2021/07/26 04:55:58;;;;;;;10.18;9.18;;;;;;;23.43;61.58;99752.74;154154;1101;103470;-82
2021/07/26 04:59:03;;;;;;;9.90;8.90;;;;;;;23.40;61.61;99750.51;154105;1101;103190;-82
2021/07/26 05:02:09;;;;;;;10.00;9.00;;;;;;;23.37;61.80;99750.21;154209;1093;103193;-82
2021/07/26 05:05:14;;;;;;;9.73;8.80;;;;;;;23.31;61.37;99744.68;154136;1093;103128;-82
2021/07/26 05:08:19;;;;;;;9.93;8.70;;;;;;;23.22;61.77;99745.36;154075;1093;103187;-81
2021/07/26 05:11:27;;;;;;;9.90;9.00;;;;;;;23.11;61.50;99753.38;154122;1101;103196;-82
2021/07/26 05:14:32;;;;;;;10.55;9.45;;;;;;;23.02;61.97;99754.82;154120;1101;103192;-82
2021/07/26 05:17:37;;;;;;;9.63;8.63;;;;;;;22.96;61.89;99752.25;154039;1101;103125;-82
2021/07/26 05:20:43;;;;;;;8.07;7.10;;;;;;;22.88;62.00;99753.48;154145;1093;103218;-82
2021/07/26 05:23:48;;;;;;;9.20;8.30;;;;;;;22.90;61.97;99748.62;154215;1094;103192;-82
2021/07/26 05:27:00;;;;;;;9.48;8.30;;;;;;;22.92;62.05;99747.31;154148;1094;103099;-81
2021/07/26 05:30:08;;;;;;;9.87;8.87;;;;;;;22.98;61.68;99739.22;154149;1093;103254;-82
2021/07/26 05:33:13;;;;;;;9.60;8.20;;;;;;;23.02;61.91;99740.37;154296;1101;103122;-82
2021/07/26 05:36:23;;;;;;;9.13;8.23;;;;;;;23.10;61.89;99751.70;154198;1101;103133;-82
2021/07/26 05:39:28;;;;;;;9.17;8.27;;;;;;;23.19;61.73;99762.17;154045;1101;103277;-82
2021/07/26 05:42:33;;;;;;;10.70;8.53;;;;;;;23.27;61.75;99759.05;154064;1096;103168;-81
2021/07/26 05:45:40;;;;;;;8.93;8.03;;;;;;;23.36;61.70;99757.53;154061;1101;103167;-81
2021/07/26 05:48:45;;;;;;;8.90;8.00;;;;;;;23.50;61.99;99764.29;154029;1095;103134;-81
2021/07/26 05:51:50;;;;;;;10.37;9.00;;;;;;;23.68;61.52;99765.08;154129;1101;103137;-81
2021/07/26 05:54:55;;;;;;;9.45;8.33;;;;;;;23.80;61.19;99778.61;154064;1096;103201;-81
2021/07/26 05:58:03;;;;;;;8.63;7.83;;;;;;;23.85;61.55;99781.41;154082;1095;103134;-82
2021/07/26 06:01:21;;;;;;;9.53;8.58;;;;;;;23.79;61.31;99790.56;154255;1094;103099;-81
2021/07/26 06:04:26;;;;;;;9.63;8.63;;;;;;;23.73;61.22;99792.39;154167;1101;103246;-81
2021/07/26 06:07:31;;;;;;;9.57;8.13;;;;;;;23.75;61.54;99787.52;154222;1101;103491;-82
2021/07/26 06:10:37;;;;;;;10.70;7.85;;;;;;;23.85;61.22;99782.23;154026;1101;103261;-81
2021/07/26 06:13:42;;;;;;;9.17;8.17;;;;;;;23.96;60.97;99787.80;154106;1096;103043;-81
2021/07/26 06:16:48;;;;;;;8.43;7.63;;;;;;;24.06;61.00;99782.50;154089;1101;103131;-82
2021/07/26 06:19:53;;;;;;;9.83;8.53;;;;;;;24.14;61.17;99789.41;153988;1101;103223;-80
2021/07/26 06:22:58;;;;;;;9.57;8.67;;;;;;;24.21;60.94;99781.84;154026;1096;103240;-81
2021/07/26 06:26:06;;;;;;;9.60;8.63;;;;;;;24.21;60.69;99793.59;154079;1101;103234;-81
2021/07/26 06:29:12;;;;;;;9.87;8.90;;;;;;;24.12;60.91;99786.92;154127;1101;103170;-81
2021/07/26 06:32:17;;;;;;;12.00;10.00;;;;;;;24.07;60.51;99784.13;154165;1096;103224;-82
2021/07/26 06:35:22;;;;;;;8.90;8.10;;;;;;;24.06;60.76;99786.04;154020;1101;103147;-81
2021/07/26 06:38:27;;;;;;;10.33;8.33;;;;;;;24.05;60.38;99778.92;154175;1101;103195;-81
2021/07/26 06:41:33;;;;;;;10.35;8.73;;;;;;;24.04;60.43;99790.11;154096;1101;103470;-81
2021/07/26 06:44:39;;;;;;;10.60;9.20;;;;;;;23.99;60.88;99790.03;154199;1101;103221;-81
2021/07/26 06:47:44;;;;;;;10.60;8.60;;;;;;;23.94;60.37;99779.05;154216;1096;103222;-82
2021/07/26 06:50:49;;;;;;;10.20;9.10;;;;;;;23.88;60.47;99780.89;154064;1093;103243;-83
2021/07/26 06:53:55;;;;;;;10.50;8.67;;;;;;;23.81;60.67;99781.09;154164;1101;103142;-82
2021/07/26 06:57:00;;;;;;;9.83;8.20;;;;;;;23.77;60.69;99779.07;154084;1101;103199;-81
2021/07/26 07:00:07;;;;;;;9.33;8.43;;;;;;;23.70;60.89;99780.08;154054;1101;103144;-82
2021/07/26 07:03:12;;;;;;;10.05;8.28;;;;;;;23.63;60.97;99779.43;154137;1101;103510;-83
2021/07/26 07:06:20;;;;;;;8.80;7.88;;;;;;;23.64;61.28;99770.20;154103;1101;103117;-82
2021/07/26 07:09:25;;;;;;;9.60;7.87;;;;;;;23.65;61.20;99769.14;154181;1101;103190;-82
2021/07/26 07:12:30;;;;;;;10.38;7.83;;;;;;;23.71;61.17;99762.67;154060;1101;103211;-82
2021/07/26 07:15:36;;;;;;;10.70;8.50;;;;;;;23.78;60.63;99762.51;154139;1093;103131;-82
2021/07/26 07:18:41;;;;;;;11.53;8.80;;;;;;;23.81;61.02;99770.19;154127;1093;103196;-82
2021/07/26 07:21:46;;;;;;;9.83;8.80;;;;;;;23.75;61.01;99760.28;154048;1101;103124;-81
2021/07/26 07:24:51;;;;;;;9.47;8.47;;;;;;;23.78;60.99;99756.22;154202;1101;103486;-81
2021/07/26 07:27:56;;;;;;;9.77;8.77;;;;;;;23.80;61.16;99768.53;154405;1101;103219;-80
2021/07/26 07:31:01;;;;;;;10.13;8.70;;;;;;;23.80;61.29;99773.98;154449;1101;103099;-81
2021/07/26 07:34:07;;;;;;;9.70;8.67;;;;;;;23.80;60.90;99784.88;154238;1101;103195;-82
2021/07/26 07:37:13;;;;;;;9.68;8.68;;;;;;;23.86;61.20;99785.77;154140;1101;103190;-81
2021/07/26 07:40:18;;;;;;;10.20;9.15;;;;;;;23.90;60.81;99787.75;154244;1101;103196;-81
2021/07/26 07:43:23;;;;;;;10.98;8.93;;;;;;;23.92;61.03;99801.10;153992;1101;103224;-81
2021/07/26 07:46:28;;;;;;;10.33;9.20;;;;;;;23.97;61.13;99803.91;154117;1096;103105;-81
2021/07/26 07:49:34;;;;;;;9.30;8.37;;;;;;;23.98;61.09;99812.89;154048;1096;103123;-80
2021/07/26 07:52:39;;;;;;;9.13;7.90;;;;;;;24.06;61.28;99821.47;154072;1096;103105;-81
2021/07/26 07:55:44;;;;;;;9.60;8.60;;;;;;;24.20;61.28;99827.36;154104;1101;103567;-81
2021/07/26 07:58:52;;;;;;;13.10;9.27;;;;;;;24.30;61.48;99835.66;154330;1101;103198;-81
2021/07/26 08:01:59;;;;;;;9.80;8.83;;;;;;;24.34;60.90;99822.34;154138;1101;103135;-81
2021/07/26 08:05:04;;;;;;;10.40;9.30;;;;;;;24.45;61.01;99824.11;154062;1094;103145;-81
2021/07/26 08:08:09;;;;;;;10.38;8.65;;;;;;;24.53;60.99;99831.05;154068;1096;103122;-81
2021/07/26 08:11:16;;;;;;;10.80;9.40;;;;;;;24.57;60.60;99828.64;154065;1101;103131;-81
2021/07/26 08:14:21;;;;;;;9.57;8.67;;;;;;;24.63;61.17;99825.70;154076;1101;103289;-81
2021/07/26 08:17:26;;;;;;;9.73;8.83;;;;;;;24.73;60.73;99821.43;153969;1095;103195;-80
2021/07/26 08:20:31;;;;;;;9.15;8.33;;;;;;;24.85;60.47;99817.47;154011;1101;103499;-80
2021/07/26 08:23:36;;;;;;;9.83;8.90;;;;;;;24.96;60.72;99806.64;153978;1095;103099;-80
2021/07/26 08:26:41;;;;;;;9.30;8.40;;;;;;;25.07;60.32;99809.20;153984;1096;103246;-80
2021/07/26 08:29:46;;;;;;;9.65;8.60;;;;;;;25.24;59.76;99808.28;154050;1101;103181;-81
2021/07/26 08:32:51;;;;;;;10.95;8.70;;;;;;;25.37;59.84;99802.38;154078;1096;103113;-81
2021/07/26 08:35:57;;;;;;;11.53;10.33;;;;;;;25.52;59.93;99809.87;154085;1101;103195;-81
2021/07/26 08:39:02;;;;;;;9.87;8.80;;;;;;;25.61;59.83;99810.99;154064;1096;103124;-81
2021/07/26 08:42:08;;;;;;;10.50;9.40;;;;;;;25.74;59.47;99811.63;154076;1101;103132;-81
2021/07/26 08:45:13;;;;;;;9.93;8.93;;;;;;;25.80;59.45;99819.58;154089;1096;103209;-81
2021/07/26 08:48:19;;;;;;;10.23;8.77;;;;;;;25.88;59.40;99828.38;154066;1101;103203;-81
2021/07/26 08:51:27;;;;;;;9.77;8.93;;;;;;;25.86;59.27;99825.91;154121;1101;103190;-81
2021/07/26 08:54:33;;;;;;;9.53;8.60;;;;;;;25.88;59.10;99822.91;154105;1096;103134;-81
2021/07/26 08:57:40;;;;;;;9.88;8.88;;;;;;;25.88;59.04;99825.64;154143;1095;103240;-81
2021/07/26 09:00:45;;;;;;;9.28;8.38;;;;;;;25.87;59.12;99827.56;154064;1094;103203;-81
2021/07/26 09:03:53;;;;;;;9.13;8.23;;;;;;;25.84;58.96;99817.96;154167;1101;103192;-81
2021/07/26 09:06:58;;;;;;;9.23;8.33;;;;;;;25.85;58.83;99827.00;154180;1101;103115;-81
2021/07/26 09:10:13;;;;;;;9.35;8.50;;;;;;;25.93;59.47;99834.73;154133;1101;103471;-81
2021/07/26 09:13:35;;;;;;;8.93;8.10;;;;;;;26.02;58.67;99824.94;154122;1093;103806;-81
2021/07/26 09:16:40;;;;;;;9.57;8.67;;;;;;;26.05;58.42;99824.39;154149;1101;103266;-81
2021/07/26 09:20:01;;;;;;;9.50;8.50;;;;;;;26.15;58.04;99829.08;154104;1101;103158;-81
2021/07/26 09:23:17;;;;;;;9.97;8.97;;;;;;;26.22;58.09;99832.40;154164;1101;103204;-81
2021/07/26 09:26:31;;;;;;;10.03;9.05;;;;;;;26.28;58.08;99826.96;154082;1101;103196;-81
2021/07/26 09:29:36;;;;;;;9.50;8.60;;;;;;;26.34;57.81;99837.64;154011;1101;103246;-79
2021/07/26 09:32:41;;;;;;;9.38;8.50;;;;;;;26.39;57.80;99829.46;154003;1101;103365;-80
2021/07/26 09:35:46;;;;;;;9.27;8.37;;;;;;;26.58;57.52;99826.22;154000;1101;103196;-80
2021/07/26 09:39:02;;;;;;;9.05;8.20;;;;;;;26.82;57.38;99823.84;154077;1093;103110;-80
2021/07/26 09:42:24;;;;;;;9.20;8.40;;;;;;;27.08;57.22;99829.34;154043;1101;103151;-80
2021/07/26 09:45:30;;;;;;;8.95;8.05;;;;;;;27.30;56.97;99818.97;153996;1093;103182;-81
2021/07/26 09:48:35;;;;;;;8.87;7.97;;;;;;;27.51;56.75;99821.70;154021;1101;103282;-81
2021/07/26 09:51:41;;;;;;;9.10;7.53;;;;;;;27.68;56.65;99822.22;154032;1101;103116;-81
2021/07/26 09:54:48;;;;;;;9.88;8.60;;;;;;;27.84;55.97;99824.92;154037;1101;103497;-80
2021/07/26 09:57:53;;;;;;;22.30;11.70;;;;;;;27.94;56.35;99830.39;154127;1101;103202;-80
2021/07/26 10:00:58;;;;;;;42.67;18.70;;;;;;;27.97;55.94;99824.37;154157;1093;103158;-80
2021/07/26 10:04:04;;;;;;;15.30;10.15;;;;;;;27.85;55.75;99819.16;154061;1094;103273;-80
2021/07/26 10:07:09;;;;;;;21.63;12.25;;;;;;;27.74;55.62;99821.09;154091;1101;103104;-80
2021/07/26 10:10:16;;;;;;;9.27;8.27;;;;;;;27.67;55.46;99808.78;153977;1093;103190;-80
2021/07/26 10:13:22;;;;;;;15.17;9.83;;;;;;;27.58;55.74;99817.58;153991;1101;103170;-80
2021/07/26 10:16:27;;;;;;;11.53;8.57;;;;;;;27.39;55.36;99819.25;154053;1101;103228;-80
2021/07/26 10:19:33;;;;;;;7.97;7.23;;;;;;;27.22;55.32;99822.23;154031;1093;103192;-81
2021/07/26 10:22:39;;;;;;;9.88;7.13;;;;;;;27.09;55.37;99817.30;154107;1101;103190;-80
2021/07/26 10:25:48;;;;;;;11.50;7.83;;;;;;;27.13;55.30;99813.73;154087;1099;103192;-81
2021/07/26 10:28:55;;;;;;;14.13;9.60;;;;;;;27.06;55.34;99821.42;154078;1093;103199;-80
2021/07/26 10:32:32;;;;;;;21.13;10.70;;;;;;;27.05;55.49;99813.47;153996;1101;103161;-80
2021/07/26 10:35:48;;;;;;;11.35;8.60;;;;;;;26.91;55.42;99814.01;154082;1096;103273;-80
2021/07/26 10:38:56;;;;;;;16.43;10.50;;;;;;;26.84;55.18;99816.18;154109;1101;103193;-80
2021/07/26 10:42:05;;;;;;;15.23;9.73;;;;;;;26.88;55.43;99814.54;153985;1096;103347;-80
2021/07/26 10:45:11;;;;;;;9.17;8.03;;;;;;;26.72;55.22;99807.41;154125;1101;103136;-81
2021/07/26 10:48:37;;;;;;;14.03;9.60;;;;;;;26.68;55.50;99806.32;153985;1095;103201;-81
2021/07/26 10:51:50;;;;;;;13.33;10.15;;;;;;;26.72;55.48;99807.41;154100;1101;103273;-81
2021/07/26 10:54:57;;;;;;;9.78;8.65;;;;;;;26.72;55.58;99804.68;154080;1096;103121;-81
2021/07/26 10:58:02;;;;;;;8.83;7.93;;;;;;;26.72;55.30;99796.47;154098;1093;103125;-81
2021/07/26 11:01:39;;;;;;;8.00;7.30;;;;;;;26.71;54.61;99797.55;154023;1101;103485;-82
2021/07/26 11:04:45;;;;;;;8.23;7.43;;;;;;;26.72;54.95;99791.81;153934;1101;103205;-81
2021/07/26 11:08:10;;;;;;;8.00;7.30;;;;;;;26.64;54.41;99784.95;154109;1093;103195;-82
2021/07/26 11:11:41;;;;;;;7.93;7.13;;;;;;;26.66;54.74;99784.69;154160;1093;103197;-81
2021/07/26 11:15:17;;;;;;;10.98;8.83;;;;;;;26.86;54.74;99783.06;154102;1094;103208;-81
2021/07/26 11:18:30;;;;;;;8.23;7.43;;;;;;;26.95;54.19;99784.17;154143;1093;103340;-81
2021/07/26 11:21:41;;;;;;;7.80;7.10;;;;;;;26.88;54.21;99781.69;154325;1101;103196;-81
2021/07/26 11:24:51;;;;;;;7.77;6.97;;;;;;;26.86;54.08;99783.88;154104;1101;103292;-82
2021/07/26 11:27:57;;;;;;;7.57;6.80;;;;;;;26.83;54.25;99779.78;154070;1094;103187;-81
2021/07/26 11:31:03;;;;;;;8.63;7.57;;;;;;;26.90;54.56;99770.47;154093;1101;103139;-81
2021/07/26 11:34:11;;;;;;;7.85;7.15;;;;;;;27.06;54.38;99776.77;154002;1094;103104;-81
2021/07/26 11:37:16;;;;;;;8.43;7.50;;;;;;;27.11;54.41;99779.51;154130;1101;103180;-82
2021/07/26 11:40:34;;;;;;;7.50;6.80;;;;;;;27.27;54.10;99775.67;154059;1101;103189;-81
2021/07/26 11:43:42;;;;;;;8.07;7.23;;;;;;;27.34;53.73;99773.48;154144;1101;103115;-81
2021/07/26 11:46:50;;;;;;;9.73;8.00;;;;;;;27.63;53.69;99772.06;154157;1093;103483;-81
2021/07/26 11:49:55;;;;;;;9.27;7.73;;;;;;;27.86;53.18;99768.70;154397;1101;103243;-82
2021/07/26 11:53:00;;;;;;;10.28;7.78;;;;;;;27.80;53.26;99767.89;154504;1101;103221;-81
2021/07/26 11:56:20;;;;;;;8.25;7.43;;;;;;;27.67;53.50;99765.73;154094;1101;103260;-81
2021/07/26 11:59:26;;;;;;;8.23;7.43;;;;;;;27.47;52.96;99760.33;154171;1101;103118;-81
2021/07/26 12:02:33;;;;;;;8.43;7.63;;;;;;;27.36;52.75;99757.59;154075;1093;103136;-82
2021/07/26 12:05:38;;;;;;;7.63;6.93;;;;;;;27.34;53.52;99745.28;154059;1094;103137;-81
2021/07/26 12:08:43;;;;;;;7.88;7.08;;;;;;;27.46;53.79;99739.49;154082;1093;103240;-82
2021/07/26 12:11:48;;;;;;;8.40;7.60;;;;;;;27.60;52.57;99743.31;154047;1101;103271;-82
2021/07/26 12:14:53;;;;;;;8.35;7.60;;;;;;;27.66;53.42;99742.19;154146;1101;103154;-82
2021/07/26 12:18:07;;;;;;;8.30;7.50;;;;;;;27.76;53.31;99742.14;154152;1101;103121;-82
2021/07/26 12:21:12;;;;;;;8.10;7.30;;;;;;;27.75;53.10;99735.03;154152;1101;103313;-81
2021/07/26 12:24:37;;;;;;;8.35;7.55;;;;;;;27.77;53.04;99738.31;154141;1101;103599;-81
2021/07/26 12:27:42;;;;;;;8.30;7.50;;;;;;;27.81;53.09;99747.62;154150;1093;103233;-81
2021/07/26 12:30:50;;;;;;;7.87;7.07;;;;;;;27.82;53.42;99751.17;154261;1096;103099;-81
2021/07/26 12:34:12;;;;;;;7.60;6.80;;;;;;;27.92;52.90;99742.11;154205;1101;103125;-81
2021/07/26 12:37:21;;;;;;;8.13;7.30;;;;;;;28.08;52.35;99746.44;154101;1093;103222;-82
2021/07/26 12:40:28;;;;;;;7.75;7.05;;;;;;;28.15;52.97;99743.38;154110;1101;103211;-82
2021/07/26 12:43:34;;;;;;;7.78;7.08;;;;;;;28.30;52.86;99751.52;154116;1093;103302;-83
2021/07/26 12:46:43;;;;;;;7.70;7.00;;;;;;;28.52;52.19;99748.41;154101;1101;103602;-82
2021/07/26 12:49:48;;;;;;;8.20;7.40;;;;;;;28.56;52.22;99749.47;154072;1093;103224;-81
2021/07/26 12:52:53;;;;;;;7.75;7.05;;;;;;;28.46;52.03;99754.17;154227;1101;103227;-81
2021/07/26 12:55:58;;;;;;;8.17;7.37;;;;;;;28.42;51.45;99753.09;154127;1096;103339;-81
2021/07/26 12:59:03;;;;;;;8.23;7.53;;;;;;;28.22;52.09;99759.53;154056;1096;103255;-81
2021/07/26 13:02:09;;;;;;;7.60;6.80;;;;;;;27.99;52.62;99751.67;154085;1096;103230;-81
2021/07/26 13:05:16;;;;;;;8.43;7.45;;;;;;;27.87;52.13;99756.64;154068;1101;103147;-82
2021/07/26 13:08:22;;;;;;;7.47;6.87;;;;;;;27.86;52.40;99751.44;154177;1094;103189;-81
2021/07/26 13:11:27;;;;;;;7.50;6.80;;;;;;;27.98;52.33;99740.98;154031;1096;103203;-83
2021/07/26 13:14:32;;;;;;;6.00;5.40;;;;;;;28.07;52.01;99741.23;154065;1094;103176;-81
2021/07/26 13:17:37;;;;;;;7.57;6.87;;;;;;;28.10;52.23;99741.48;154069;1101;103231;-81
2021/07/26 13:20:43;;;;;;;5.88;5.28;;;;;;;28.11;52.00;99743.11;154031;1101;103125;-82
2021/07/26 13:23:48;;;;;;;7.13;5.80;;;;;;;28.11;51.89;99745.86;154157;1094;103203;-83
2021/07/26 13:26:53;;;;;;;5.55;5.05;;;;;;;28.12;52.03;99744.77;154094;1101;103241;-82
2021/07/26 13:29:58;;;;;;;5.07;4.57;;;;;;;28.09;51.92;99737.09;154064;1101;103267;-82
2021/07/26 13:33:03;;;;;;;4.90;3.73;;;;;;;28.13;52.13;99748.32;154102;1101;103240;-83
2021/07/26 13:36:09;;;;;;;4.25;3.88;;;;;;;28.09;52.26;99750.80;154054;1093;103126;-83
2021/07/26 13:39:16;;;;;;;4.87;4.37;;;;;;;28.10;51.59;99752.45;154011;1096;103234;-82
2021/07/26 13:42:21;;;;;;;5.45;4.10;;;;;;;28.04;52.18;99756.30;154159;1094;103208;-83
2021/07/26 13:45:26;;;;;;;5.63;5.13;;;;;;;28.02;52.17;99760.44;154062;1096;103261;-82
2021/07/26 13:48:31;;;;;;;5.10;4.70;;;;;;;28.06;52.01;99756.88;154150;1101;103121;-82
2021/07/26 13:51:36;;;;;;;5.17;4.67;;;;;;;28.06;52.25;99751.39;154049;1096;103104;-82
2021/07/26 13:54:41;;;;;;;5.40;4.90;;;;;;;28.09;51.84;99750.80;154221;1101;103340;-80
2021/07/26 13:57:46;;;;;;;5.48;4.88;;;;;;;28.04;52.47;99753.56;153986;1095;103591;-81
2021/07/26 14:00:52;;;;;;;7.03;5.38;;;;;;;27.99;52.58;99746.19;154082;1101;103681;-81
2021/07/26 14:03:59;;;;;;;5.30;4.80;;;;;;;28.00;52.39;99741.52;154175;1101;103206;-79
2021/07/26 14:07:04;;;;;;;5.15;4.73;;;;;;;28.07;52.17;99757.69;154056;1096;103140;-80
2021/07/26 14:10:11;;;;;;;6.15;5.55;;;;;;;28.12;52.60;99747.52;153964;1096;103345;-79
2021/07/26 14:13:16;;;;;;;6.00;5.38;;;;;;;28.10;53.77;99741.48;154005;1096;103253;-81
2021/07/26 14:16:21;;;;;;;6.10;5.50;;;;;;;28.11;52.89;99734.88;154058;1101;103275;-81
2021/07/26 14:19:28;;;;;;;5.80;5.30;;;;;;;28.22;52.44;99738.41;154048;1101;103132;-81